createdAt,value
2019-06-01T00:01:01.869Z,0.90
2019-06-01T00:03:30.358Z,0.90
2019-06-01T00:05:57.677Z,1.00
2019-06-01T00:08:25.024Z,0.70
2019-06-01T00:10:52.321Z,0.70
2019-06-01T00:13:19.691Z,0.77
2019-06-01T00:15:48.284Z,0.70
2019-06-01T00:18:15.634Z,0.70
2019-06-01T00:20:44.328Z,0.80
2019-06-01T00:23:11.729Z,0.90
2019-06-01T00:25:40.440Z,0.70
2019-06-01T00:28:07.817Z,0.60
2019-06-01T00:30:35.322Z,0.83
2019-06-01T00:33:02.837Z,0.70
2019-06-01T00:35:30.540Z,0.70
2019-06-01T00:37:57.768Z,0.50
2019-06-01T00:40:25.399Z,0.90
2019-06-01T00:42:53.437Z,0.77
2019-06-01T00:45:20.760Z,0.70
2019-06-01T00:47:48.936Z,0.70
2019-06-01T00:50:16.661Z,0.80
2019-06-01T00:52:45.005Z,0.80
2019-06-01T00:55:12.449Z,0.50
2019-06-01T00:57:39.770Z,0.90
2019-06-01T01:00:07.465Z,0.70
2019-06-01T01:02:34.876Z,0.67
2019-06-01T01:05:13.248Z,0.87
2019-06-01T01:07:41.595Z,0.77
2019-06-01T01:10:08.803Z,0.80
2019-06-01T01:12:55.682Z,0.60
2019-06-01T01:15:23.114Z,0.63
2019-06-01T01:17:51.898Z,0.87
2019-06-01T01:20:19.375Z,0.60
2019-06-01T01:22:47.831Z,0.60
2019-06-01T01:25:15.803Z,0.90
2019-06-01T01:27:43.108Z,0.70
2019-06-01T01:30:10.539Z,0.63
2019-06-01T01:32:38.315Z,0.40
2019-06-01T01:35:05.873Z,0.87
2019-06-01T01:37:33.190Z,0.60
2019-06-01T01:40:00.492Z,0.70
2019-06-01T01:42:27.710Z,1.03
2019-06-01T01:44:54.955Z,0.60
2019-06-01T01:47:22.278Z,0.60
2019-06-01T01:49:50.030Z,0.60
2019-06-01T01:52:17.433Z,0.67
2019-06-01T01:54:44.745Z,0.73
2019-06-01T01:57:11.995Z,0.70
2019-06-01T01:59:39.533Z,0.50
2019-06-01T02:02:06.840Z,0.80
2019-06-01T02:04:34.220Z,0.80
2019-06-01T02:07:02.388Z,0.70
2019-06-01T02:09:29.834Z,0.70
2019-06-01T02:11:57.704Z,0.60
2019-06-01T02:14:25.215Z,0.50
2019-06-01T02:16:53.868Z,0.80
2019-06-01T02:19:21.314Z,0.80
2019-06-01T02:21:48.524Z,0.60
2019-06-01T02:24:15.832Z,0.90
2019-06-01T02:26:43.400Z,0.60
2019-06-01T02:29:12.086Z,0.73
2019-06-01T02:31:42.333Z,0.70
2019-06-01T02:34:09.202Z,0.67
2019-06-01T02:36:36.442Z,0.73
2019-06-01T02:39:05.943Z,0.70
2019-06-01T02:41:33.498Z,0.80
2019-06-01T02:44:03.818Z,0.60
2019-06-01T02:46:35.938Z,0.80
2019-06-01T02:49:06.275Z,1.00
2019-06-01T02:51:35.384Z,0.60
2019-06-01T02:54:04.178Z,0.60
2019-06-01T02:56:31.696Z,0.60
2019-06-01T02:59:00.265Z,0.70
2019-06-01T03:01:34.797Z,0.50
2019-06-01T03:04:05.328Z,0.70
2019-06-01T03:06:32.761Z,0.57
2019-06-01T03:09:01.679Z,0.77
2019-06-01T03:11:33.744Z,0.70
2019-06-01T03:14:02.354Z,0.60
2019-06-01T03:16:30.250Z,0.70
2019-06-01T03:19:01.877Z,0.60
2019-06-01T03:21:32.885Z,0.63
2019-06-01T03:24:03.932Z,0.70
2019-06-01T03:26:31.633Z,0.60
2019-06-01T03:29:00.769Z,0.70
2019-06-01T03:31:28.098Z,0.60
2019-06-01T03:33:55.413Z,0.50
2019-06-01T03:36:23.042Z,0.80
2019-06-01T03:38:50.348Z,0.70
2019-06-01T03:41:18.656Z,0.70
2019-06-01T03:43:46.045Z,0.60
2019-06-01T03:46:13.344Z,0.80
2019-06-01T03:48:40.585Z,0.70
2019-06-01T03:51:08.296Z,0.50
2019-06-01T03:53:35.610Z,0.60
2019-06-01T03:56:03.294Z,0.70
2019-06-01T03:58:30.921Z,0.80
2019-06-01T04:00:58.217Z,0.63
2019-06-01T04:03:25.529Z,0.60
2019-06-01T04:05:52.838Z,0.70
2019-06-01T04:08:20.140Z,0.63
2019-06-01T04:10:47.461Z,0.77
2019-06-01T04:13:14.681Z,0.60
2019-06-01T04:15:42.021Z,0.70
2019-06-01T04:18:10.240Z,0.80
2019-06-01T04:20:37.797Z,0.63
2019-06-01T04:23:06.181Z,0.80
2019-06-01T04:25:33.689Z,0.50
2019-06-01T04:28:02.117Z,0.70
2019-06-01T04:30:29.877Z,0.70
2019-06-01T04:32:57.187Z,0.90
2019-06-01T04:35:24.533Z,0.70
2019-06-01T04:37:51.961Z,0.60
2019-06-01T04:40:19.288Z,0.80
2019-06-01T04:42:47.230Z,0.50
2019-06-01T04:45:14.509Z,0.60
2019-06-01T04:47:41.817Z,0.63
2019-06-01T04:50:09.217Z,0.70
2019-06-01T04:52:36.545Z,0.67
2019-06-01T04:55:05.174Z,0.60
2019-06-01T04:57:32.877Z,0.77
2019-06-01T05:00:00.105Z,0.80
2019-06-01T05:02:27.637Z,0.60
2019-06-01T05:04:54.945Z,0.60
2019-06-01T05:07:22.290Z,0.70
2019-06-01T05:09:49.521Z,0.70
2019-06-01T05:12:16.857Z,0.60
2019-06-01T05:14:44.177Z,0.80
2019-06-01T05:17:13.494Z,0.60
2019-06-01T05:19:40.586Z,0.53
2019-06-01T05:22:08.421Z,0.87
2019-06-01T05:24:35.953Z,0.77
2019-06-01T05:27:03.222Z,0.70
2019-06-01T05:29:31.529Z,0.60
2019-06-01T05:31:58.872Z,0.60
2019-06-01T05:34:26.186Z,0.60
2019-06-01T05:36:53.537Z,0.80
2019-06-01T05:39:22.067Z,0.70
2019-06-01T05:41:49.396Z,0.50
2019-06-01T05:44:17.020Z,0.57
2019-06-01T05:46:44.658Z,0.57
2019-06-01T05:49:13.131Z,0.60
2019-06-01T05:51:40.825Z,0.83
2019-06-01T05:54:08.036Z,0.77
2019-06-01T05:56:36.319Z,0.70
2019-06-01T05:59:03.865Z,0.80
2019-06-01T06:01:31.401Z,0.60
2019-06-01T06:03:58.918Z,0.57
2019-06-01T06:06:26.258Z,0.40
2019-06-01T06:08:53.683Z,0.67
2019-06-01T06:11:22.119Z,0.67
2019-06-01T06:13:49.422Z,0.70
2019-06-01T06:16:17.991Z,0.60
2019-06-01T06:18:45.648Z,0.70
2019-06-01T06:21:13.994Z,0.53
2019-06-01T06:23:41.406Z,0.60
2019-06-01T06:26:08.863Z,0.70
2019-06-01T06:28:36.661Z,0.70
2019-06-01T06:31:05.290Z,0.60
2019-06-01T06:33:36.849Z,0.70
2019-06-01T06:36:04.168Z,0.60
2019-06-01T06:38:31.386Z,0.70
2019-06-01T06:40:58.805Z,0.70
2019-06-01T06:43:32.691Z,0.60
2019-06-01T06:45:55.151Z,0.37
2019-06-01T06:48:23.332Z,0.80
2019-06-01T06:50:54.736Z,0.80
2019-06-01T06:53:29.836Z,0.60
2019-06-01T06:55:53.031Z,0.70
2019-06-01T06:58:24.429Z,0.50
2019-06-01T07:00:53.016Z,0.70
2019-06-01T07:03:21.061Z,0.67
2019-06-01T07:05:48.671Z,0.80
2019-06-01T07:08:17.579Z,0.70
2019-06-01T07:10:45.042Z,0.67
2019-06-01T07:13:12.419Z,0.63
2019-06-01T07:15:43.853Z,0.70
2019-06-01T07:18:12.475Z,0.80
2019-06-01T07:20:40.953Z,0.90
2019-06-01T07:23:08.509Z,0.60
2019-06-01T07:25:36.877Z,0.50
2019-06-01T07:28:06.393Z,0.70
2019-06-01T07:30:49.723Z,0.60
2019-06-01T07:33:05.378Z,0.73
2019-06-01T07:35:32.896Z,0.70
2019-06-01T07:38:02.753Z,0.70
2019-06-01T07:40:33.077Z,0.80
2019-06-01T07:43:02.463Z,0.60
2019-06-01T07:45:33.460Z,0.50
2019-06-01T07:47:59.678Z,0.60
2019-06-01T07:50:28.070Z,0.73
2019-06-01T07:52:55.901Z,0.93
2019-06-01T07:55:25.460Z,0.80
2019-06-01T07:57:53.049Z,0.70
2019-06-01T08:00:21.005Z,0.70
2019-06-01T08:02:50.104Z,0.70
2019-06-01T08:05:17.620Z,0.60
2019-06-01T08:07:45.053Z,0.70
2019-06-01T08:10:12.637Z,0.70
2019-06-01T08:12:40.105Z,0.70
2019-06-01T08:15:07.651Z,0.70
2019-06-01T08:17:35.193Z,0.70
2019-06-01T08:20:02.966Z,0.60
2019-06-01T08:22:30.565Z,0.70
2019-06-01T08:24:58.209Z,0.70
2019-06-01T08:27:26.489Z,0.60
2019-06-01T08:29:53.998Z,0.80
2019-06-01T08:32:22.564Z,0.67
2019-06-01T08:35:06.903Z,0.60
2019-06-01T08:37:19.493Z,0.80
2019-06-01T08:39:46.805Z,0.63
2019-06-01T08:42:14.252Z,0.60
2019-06-01T08:44:41.660Z,0.80
2019-06-01T08:47:09.113Z,0.70
2019-06-01T08:49:36.669Z,0.67
2019-06-01T08:52:04.371Z,0.50
2019-06-01T08:54:32.304Z,0.67
2019-06-01T08:56:59.657Z,0.80
2019-06-01T08:59:28.276Z,0.80
2019-06-01T09:01:55.825Z,0.83
2019-06-01T09:04:24.576Z,0.60
2019-06-01T09:06:52.076Z,0.60
2019-06-01T09:09:19.593Z,0.70
2019-06-01T09:11:47.125Z,0.70
2019-06-01T09:14:14.443Z,0.73
2019-06-01T09:16:42.003Z,0.67
2019-06-01T09:19:11.361Z,0.57
2019-06-01T09:21:39.934Z,0.90
2019-06-01T09:24:07.397Z,0.50
2019-06-01T09:26:36.100Z,0.77
2019-06-01T09:29:04.201Z,0.77
2019-06-01T09:31:32.354Z,0.60
2019-06-01T09:33:59.781Z,0.60
2019-06-01T09:36:28.252Z,0.80
2019-06-01T09:38:55.713Z,0.70
2019-06-01T09:41:23.041Z,0.63
2019-06-01T09:43:51.766Z,0.70
2019-06-01T09:46:19.269Z,0.60
2019-06-01T09:48:46.653Z,0.80
2019-06-01T09:51:14.133Z,0.60
2019-06-01T09:53:41.578Z,0.70
2019-06-01T09:56:08.902Z,0.83
2019-06-01T09:58:36.888Z,0.70
2019-06-01T10:01:04.711Z,0.73
2019-06-01T10:03:32.542Z,0.80
2019-06-01T10:06:02.112Z,0.60
2019-06-01T10:08:29.388Z,0.73
2019-06-01T10:10:56.569Z,1.00
2019-06-01T10:13:23.865Z,0.90
2019-06-01T10:15:51.511Z,1.07
2019-06-01T10:18:18.817Z,0.70
2019-06-01T10:20:47.513Z,0.80
2019-06-01T10:23:14.965Z,0.80
2019-06-01T10:25:42.637Z,0.50
2019-06-01T10:28:10.138Z,0.80
2019-06-01T10:30:37.909Z,0.70
2019-06-01T10:33:05.385Z,0.50
2019-06-01T10:35:32.789Z,0.80
2019-06-01T10:38:00.065Z,0.70
2019-06-01T10:40:27.365Z,0.60
2019-06-01T10:42:54.885Z,0.80
2019-06-01T10:45:22.196Z,0.73
2019-06-01T10:47:49.508Z,0.70
2019-06-01T10:50:17.746Z,0.60
2019-06-01T10:52:45.253Z,0.70
2019-06-01T10:55:12.466Z,0.90
2019-06-01T10:57:40.626Z,0.70
2019-06-01T11:00:08.338Z,0.77
2019-06-01T11:02:36.651Z,0.90
2019-06-01T11:05:04.833Z,0.80
2019-06-01T11:07:32.753Z,0.80
2019-06-01T11:10:00.413Z,0.90
2019-06-01T11:12:27.833Z,0.63
2019-06-01T11:14:59.368Z,0.70
2019-06-01T11:17:26.937Z,0.60
2019-06-01T11:19:54.193Z,1.00
2019-06-01T11:22:21.658Z,0.80
2019-06-01T11:24:49.004Z,0.93
2019-06-01T11:27:16.319Z,0.70
2019-06-01T11:29:50.814Z,1.00
2019-06-01T11:32:12.901Z,0.70
2019-06-01T11:34:40.335Z,0.80
2019-06-01T11:37:07.754Z,0.90
2019-06-01T11:39:36.319Z,0.87
2019-06-01T11:42:03.770Z,0.80
2019-06-01T11:44:30.984Z,0.90
2019-06-01T11:46:58.302Z,0.93
2019-06-01T11:49:25.549Z,0.83
2019-06-01T11:51:52.888Z,0.70
2019-06-01T11:54:21.500Z,1.00
2019-06-01T11:56:49.113Z,0.80
2019-06-01T11:59:16.405Z,1.00
2019-06-01T12:01:44.164Z,0.83
2019-06-01T12:04:11.686Z,0.90
2019-06-01T12:06:39.832Z,0.63
2019-06-01T12:09:07.973Z,0.80
2019-06-01T12:11:35.756Z,0.80
2019-06-01T12:14:03.045Z,0.70
2019-06-01T12:16:30.531Z,0.90
2019-06-01T12:18:57.883Z,0.80
2019-06-01T12:21:25.539Z,1.10
2019-06-01T12:23:52.750Z,0.90
2019-06-01T12:26:20.320Z,0.90
2019-06-01T12:28:48.020Z,0.83
2019-06-01T12:34:04.718Z,1.17
2019-06-01T12:36:31.957Z,0.80
2019-06-01T12:38:59.274Z,0.83
2019-06-01T12:41:26.608Z,1.30
2019-06-01T12:44:13.170Z,0.90
2019-06-01T12:46:41.751Z,1.00
2019-06-01T12:49:09.322Z,0.90
2019-06-01T12:51:36.558Z,0.83
2019-06-01T12:54:04.236Z,1.00
2019-06-01T12:56:31.829Z,1.00
2019-06-01T12:58:59.303Z,0.97
2019-06-01T13:01:26.844Z,1.00
2019-06-01T13:03:54.148Z,1.00
2019-06-01T13:06:22.135Z,0.70
2019-06-01T13:08:49.447Z,0.90
2019-06-01T13:11:16.909Z,0.73
2019-06-01T13:13:45.250Z,1.00
2019-06-01T13:16:12.534Z,0.87
2019-06-01T13:18:41.149Z,0.60
2019-06-01T13:21:08.825Z,1.10
2019-06-01T13:23:36.200Z,0.80
2019-06-01T13:26:03.470Z,0.70
2019-06-01T13:28:37.960Z,1.10
2019-06-01T13:31:00.472Z,0.90
2019-06-01T13:33:28.166Z,0.80
2019-06-01T13:35:55.507Z,1.10
2019-06-01T13:38:22.829Z,0.80
2019-06-01T13:40:51.055Z,0.90
2019-06-01T13:43:18.431Z,1.00
2019-06-01T13:45:45.633Z,0.80
2019-06-01T13:48:12.889Z,0.93
2019-06-01T13:50:40.145Z,1.00
2019-06-01T13:53:07.485Z,1.00
2019-06-01T13:55:34.813Z,0.93
2019-06-01T13:58:02.155Z,0.83
2019-06-01T14:00:30.786Z,0.70
2019-06-01T14:02:58.301Z,0.97
2019-06-01T14:05:25.657Z,0.87
2019-06-01T14:07:53.569Z,0.80
2019-06-01T14:10:21.217Z,1.13
2019-06-01T14:12:49.374Z,0.90
2019-06-01T14:15:16.729Z,0.83
2019-06-01T14:17:44.060Z,0.97
2019-06-01T14:20:11.661Z,0.83
2019-06-01T14:22:39.602Z,0.77
2019-06-01T14:25:13.481Z,1.10
2019-06-01T14:27:35.963Z,0.93
2019-06-01T14:30:03.712Z,1.07
2019-06-01T14:32:31.465Z,1.23
2019-06-01T14:34:58.858Z,0.73
2019-06-01T14:37:26.285Z,0.90
2019-06-01T14:39:54.954Z,0.70
2019-06-01T14:42:22.185Z,0.80
2019-06-01T14:44:49.538Z,1.10
2019-06-01T14:47:18.771Z,1.30
2019-06-01T14:49:47.226Z,1.00
2019-06-01T14:52:14.810Z,1.30
2019-06-01T14:54:43.398Z,1.07
2019-06-01T14:57:10.728Z,1.20
2019-06-01T14:59:39.677Z,0.80
2019-06-01T15:02:07.127Z,0.83
2019-06-01T15:04:34.549Z,0.80
2019-06-01T15:07:01.863Z,1.03
2019-06-01T15:09:29.256Z,0.87
2019-06-01T15:11:56.795Z,1.10
2019-06-01T15:14:24.121Z,0.80
2019-06-01T15:16:51.854Z,0.93
2019-06-01T15:19:19.888Z,0.70
2019-06-01T15:21:47.486Z,0.97
2019-06-01T15:24:16.558Z,1.00
2019-06-01T15:26:44.452Z,1.00
2019-06-01T15:29:11.822Z,0.80
2019-06-01T15:31:39.759Z,0.80
2019-06-01T15:34:07.348Z,0.90
2019-06-01T15:36:34.774Z,1.00
2019-06-01T15:39:02.529Z,1.07
2019-06-01T15:41:30.621Z,1.10
2019-06-01T15:43:59.182Z,0.93
2019-06-01T15:46:26.592Z,1.00
2019-06-01T15:48:53.936Z,1.10
2019-06-01T15:51:21.445Z,0.80
2019-06-01T15:53:49.877Z,1.20
2019-06-01T15:56:17.453Z,0.80
2019-06-01T15:58:52.805Z,1.17
2019-06-01T16:01:14.061Z,1.00
2019-06-01T16:03:41.614Z,0.90
2019-06-01T16:06:08.830Z,1.30
2019-06-01T16:08:36.437Z,1.23
2019-06-01T16:11:06.221Z,1.20
2019-06-01T16:13:33.245Z,1.20
2019-06-01T16:16:03.192Z,1.00
2019-06-01T16:18:29.994Z,1.23
2019-06-01T16:20:58.036Z,0.90
2019-06-01T16:23:25.742Z,1.20
2019-06-01T16:26:03.863Z,0.90
2019-06-01T16:28:22.463Z,1.40
2019-06-01T16:30:49.996Z,1.13
2019-06-01T16:33:17.314Z,1.10
2019-06-01T16:35:44.869Z,1.17
2019-06-01T16:38:12.277Z,1.07
2019-06-01T16:40:39.645Z,1.13
2019-06-01T16:43:07.161Z,1.00
2019-06-01T16:45:34.614Z,1.17
2019-06-01T16:48:01.920Z,1.20
2019-06-01T16:50:29.157Z,1.13
2019-06-01T16:52:57.777Z,1.20
2019-06-01T16:55:25.328Z,1.20
2019-06-01T16:57:52.644Z,1.07
2019-06-01T17:00:19.960Z,1.20
2019-06-01T17:02:47.317Z,1.00
2019-06-01T17:05:14.787Z,1.17
2019-06-01T17:07:42.002Z,1.20
2019-06-01T17:10:24.992Z,1.10
2019-06-01T17:12:42.950Z,1.30
2019-06-01T17:15:08.666Z,1.10
2019-06-01T17:17:35.977Z,1.00
2019-06-01T17:20:03.693Z,0.90
2019-06-01T17:22:31.004Z,1.10
2019-06-01T17:24:59.615Z,1.37
2019-06-01T17:27:26.966Z,1.20
2019-06-01T17:32:51.053Z,0.97
2019-06-01T17:35:18.750Z,1.00
2019-06-01T17:37:45.908Z,1.33
2019-06-01T17:40:13.302Z,1.27
2019-06-01T17:42:40.597Z,1.10
2019-06-01T17:45:09.560Z,0.80
2019-06-01T17:47:40.779Z,1.00
2019-06-01T17:50:07.378Z,1.10
2019-06-01T17:52:35.021Z,0.90
2019-06-01T17:55:03.206Z,1.27
2019-06-01T17:57:30.910Z,1.20
2019-06-01T17:59:58.588Z,1.30
2019-06-01T18:02:27.201Z,1.10
2019-06-01T18:04:54.793Z,1.07
2019-06-01T18:07:23.669Z,1.00
2019-06-01T18:09:51.213Z,1.03
2019-06-01T18:12:18.741Z,1.00
2019-06-01T18:14:46.103Z,1.00
2019-06-01T18:17:13.560Z,1.00
2019-06-01T18:19:40.884Z,1.33
2019-06-01T18:22:08.747Z,1.17
2019-06-01T18:24:36.201Z,1.30
2019-06-01T18:27:04.368Z,1.10
2019-06-01T18:29:31.957Z,1.10
2019-06-01T18:31:59.297Z,1.10
2019-06-01T18:34:26.810Z,1.23
2019-06-01T18:36:54.325Z,0.90
2019-06-01T18:39:21.863Z,1.10
2019-06-01T18:41:49.379Z,1.10
2019-06-01T18:44:16.895Z,1.23
2019-06-01T18:46:44.222Z,1.20
2019-06-01T18:49:11.975Z,1.20
2019-06-01T18:51:39.329Z,1.20
2019-06-01T18:54:06.745Z,0.93
2019-06-01T18:56:34.117Z,1.23
2019-06-01T18:59:01.488Z,0.97
2019-06-01T19:01:28.867Z,1.23
2019-06-01T19:06:45.866Z,1.30
2019-06-01T19:09:13.548Z,1.00
2019-06-01T19:11:41.229Z,1.10
2019-06-01T19:14:09.828Z,1.30
2019-06-01T19:16:37.422Z,0.97
2019-06-01T19:19:06.245Z,1.30
2019-06-01T19:21:33.764Z,1.20
2019-06-01T19:24:01.297Z,1.00
2019-06-01T19:26:28.629Z,1.10
2019-06-01T19:28:56.169Z,0.97
2019-06-01T19:31:23.705Z,1.00
2019-06-01T19:33:51.028Z,1.20
2019-06-01T19:36:18.357Z,1.30
2019-06-01T19:38:45.977Z,1.03
2019-06-01T19:41:13.462Z,1.00
2019-06-01T19:43:40.900Z,0.93
2019-06-01T19:46:09.616Z,1.30
2019-06-01T19:48:37.136Z,0.77
2019-06-01T19:51:04.574Z,1.07
2019-06-01T19:53:31.890Z,1.40
2019-06-01T19:56:00.356Z,1.30
2019-06-01T19:58:28.003Z,1.20
2019-06-01T20:00:55.305Z,1.20
2019-06-01T20:03:23.847Z,1.20
2019-06-01T20:05:51.409Z,1.30
2019-06-01T20:08:18.701Z,1.30
2019-06-01T20:10:46.294Z,0.90
2019-06-01T20:13:15.136Z,1.10
2019-06-01T20:15:42.533Z,1.00
2019-06-01T20:18:10.683Z,0.93
2019-06-01T20:20:38.924Z,1.10
2019-06-01T20:23:06.437Z,1.10
2019-06-01T20:25:33.741Z,1.20
2019-06-01T20:28:01.176Z,1.00
2019-06-01T20:30:28.902Z,1.07
2019-06-01T20:32:56.340Z,1.00
2019-06-01T20:35:23.573Z,1.07
2019-06-01T20:37:50.920Z,1.27
2019-06-01T20:40:18.473Z,0.87
2019-06-01T20:42:45.882Z,0.80
2019-06-01T20:45:14.949Z,1.20
2019-06-01T20:47:42.344Z,1.20
2019-06-01T20:50:10.918Z,0.90
2019-06-01T20:52:38.970Z,1.00
2019-06-01T20:55:06.957Z,1.00
2019-06-01T20:57:34.505Z,1.00
2019-06-01T21:00:02.126Z,1.17
2019-06-01T21:02:29.697Z,0.90
2019-06-01T21:04:56.997Z,1.00
2019-06-01T21:07:24.497Z,1.10
2019-06-01T21:09:56.680Z,1.37
2019-06-01T21:12:43.546Z,0.97
2019-06-01T21:14:53.381Z,0.90
2019-06-01T21:17:24.625Z,0.87
2019-06-01T21:19:53.760Z,1.00
2019-06-01T21:22:21.205Z,1.17
2019-06-01T21:24:48.633Z,0.73
2019-06-01T21:27:18.514Z,1.37
2019-06-01T21:29:47.415Z,0.70
2019-06-01T21:32:17.404Z,0.87
2019-06-01T21:34:46.138Z,1.10
2019-06-01T21:37:15.333Z,1.07
2019-06-01T21:39:44.716Z,1.00
2019-06-01T21:42:13.918Z,0.90
2019-06-01T21:44:43.519Z,1.10
2019-06-01T21:47:11.111Z,0.73
2019-06-01T21:49:39.033Z,1.20
2019-06-01T21:52:06.569Z,0.83
2019-06-01T21:54:33.926Z,1.00
2019-06-01T21:57:01.246Z,1.00
2019-06-01T21:59:28.662Z,0.83
2019-06-01T22:01:56.105Z,0.97
2019-06-01T22:04:23.521Z,0.87
2019-06-01T22:06:50.674Z,1.10
2019-06-01T22:09:19.113Z,1.10
2019-06-01T22:11:46.413Z,1.13
2019-06-01T22:14:15.037Z,1.07
2019-06-01T22:16:42.356Z,0.87
2019-06-01T22:19:09.565Z,0.90
2019-06-01T22:21:36.908Z,1.00
2019-06-01T22:24:04.788Z,0.90
2019-06-01T22:26:32.213Z,1.07
2019-06-01T22:28:59.533Z,0.77
2019-06-01T22:31:26.885Z,0.90
2019-06-01T22:33:54.232Z,0.90
2019-06-01T22:36:22.398Z,0.80
2019-06-01T22:38:50.170Z,0.80
2019-06-01T22:41:17.529Z,1.00
2019-06-01T22:43:46.906Z,0.90
2019-06-01T22:46:14.377Z,1.13
2019-06-01T22:48:41.689Z,0.90
2019-06-01T22:51:08.905Z,0.70
2019-06-01T22:53:36.436Z,1.00
2019-06-01T22:56:03.862Z,1.20
2019-06-01T22:58:31.630Z,0.93
2019-06-01T23:00:59.273Z,0.80
2019-06-01T23:03:27.963Z,0.77
2019-06-01T23:05:55.625Z,0.90
2019-06-01T23:08:24.154Z,0.90
2019-06-01T23:10:52.405Z,1.07
2019-06-01T23:13:19.633Z,0.90
2019-06-01T23:15:47.145Z,0.90
2019-06-01T23:18:14.492Z,0.80
2019-06-01T23:20:41.881Z,1.00
2019-06-01T23:23:09.193Z,1.00
2019-06-01T23:25:36.514Z,0.80
2019-06-01T23:28:03.834Z,0.90
2019-06-01T23:30:32.330Z,0.90
2019-06-01T23:32:59.817Z,1.00
2019-06-01T23:35:27.133Z,0.93
2019-06-01T23:37:54.347Z,0.80
2019-06-01T23:40:22.456Z,0.50
2019-06-01T23:42:49.876Z,1.00
2019-06-01T23:45:17.425Z,0.90
2019-06-01T23:47:44.797Z,0.80
2019-06-01T23:50:12.334Z,0.97
2019-06-01T23:52:40.017Z,0.90
2019-06-01T23:55:07.545Z,1.17
2019-06-01T23:57:34.889Z,0.73
